createdAt,value
2023-02-21T00:00:06.445Z,11.70
2023-02-21T00:01:06.410Z,12.60
2023-02-21T00:02:06.416Z,11.10
2023-02-21T00:03:06.376Z,12.20
2023-02-21T00:04:06.374Z,11.70
2023-02-21T00:05:06.348Z,12.90
2023-02-21T00:06:06.354Z,11.20
2023-02-21T00:07:06.321Z,10.20
2023-02-21T00:08:06.354Z,10.80
2023-02-21T00:09:06.338Z,11.50
2023-02-21T00:10:06.291Z,11.70
2023-02-21T00:11:06.276Z,12.50
2023-02-21T00:12:06.268Z,10.90
2023-02-21T00:13:06.270Z,10.30
2023-02-21T00:14:06.268Z,10.90
2023-02-21T00:15:06.247Z,11.50
2023-02-21T00:16:06.204Z,11.30
2023-02-21T00:17:06.206Z,11.60
2023-02-21T00:18:06.193Z,11.80
2023-02-21T00:19:06.224Z,12.00
2023-02-21T00:20:06.216Z,11.90
2023-02-21T00:21:06.189Z,11.40
2023-02-21T00:22:06.144Z,12.40
2023-02-21T00:23:06.134Z,11.50
2023-02-21T00:24:06.146Z,10.00
2023-02-21T00:25:06.116Z,11.80
2023-02-21T00:26:06.114Z,11.00
2023-02-21T00:27:06.094Z,13.00
2023-02-21T00:28:06.087Z,11.90
2023-02-21T00:29:06.094Z,12.40
2023-02-21T00:30:06.166Z,13.10
2023-02-21T00:31:06.124Z,11.10
2023-02-21T00:32:06.063Z,12.20
2023-02-21T00:33:07.215Z,11.70
2023-02-21T00:34:06.022Z,11.60
2023-02-21T00:35:06.034Z,11.60
2023-02-21T00:36:06.005Z,11.50
2023-02-21T00:37:05.985Z,10.90
2023-02-21T00:38:05.990Z,8.80
2023-02-21T00:39:05.970Z,11.80
2023-02-21T00:40:05.956Z,11.90
2023-02-21T00:41:05.964Z,11.70
2023-02-21T00:42:05.944Z,11.90
2023-02-21T00:43:05.972Z,11.40
2023-02-21T00:44:05.932Z,11.20
2023-02-21T00:45:05.966Z,12.90
2023-02-21T00:46:05.965Z,11.30
2023-02-21T00:47:05.876Z,10.70
2023-02-21T00:48:05.878Z,11.20
2023-02-21T00:49:05.886Z,12.00
2023-02-21T00:50:05.871Z,12.20
2023-02-21T00:51:05.872Z,12.40
2023-02-21T00:52:05.899Z,12.00
2023-02-21T00:53:05.812Z,11.00
2023-02-21T00:54:05.822Z,10.60
2023-02-21T00:55:05.803Z,11.70
2023-02-21T00:56:05.809Z,12.70
2023-02-21T00:57:05.771Z,11.10
2023-02-21T00:58:05.800Z,12.20
2023-02-21T00:59:05.748Z,11.80
2023-02-21T01:00:05.779Z,12.10
2023-02-21T01:01:05.803Z,11.00
2023-02-21T01:02:05.721Z,10.90
2023-02-21T01:03:05.701Z,12.00
2023-02-21T01:04:05.751Z,10.60
2023-02-21T01:05:05.684Z,11.40
2023-02-21T01:06:05.678Z,11.50
2023-02-21T01:07:05.666Z,11.80
2023-02-21T01:08:05.652Z,12.20
2023-02-21T01:09:05.662Z,12.70
2023-02-21T01:10:05.642Z,11.90
2023-02-21T01:11:05.620Z,12.40
2023-02-21T01:12:05.617Z,13.40
2023-02-21T01:13:05.638Z,11.40
2023-02-21T01:14:05.628Z,12.10
2023-02-21T01:15:05.596Z,12.40
2023-02-21T01:16:05.599Z,12.80
2023-02-21T01:17:12.938Z,11.70
2023-02-21T01:18:06.577Z,10.90
2023-02-21T01:19:05.549Z,11.00
2023-02-21T01:20:05.553Z,11.20
2023-02-21T01:21:05.541Z,12.60
2023-02-21T01:22:05.512Z,12.90
2023-02-21T01:23:05.499Z,12.50
2023-02-21T01:24:05.530Z,12.80
2023-02-21T01:25:05.487Z,12.50
2023-02-21T01:26:05.475Z,11.60
2023-02-21T01:27:05.452Z,13.00
2023-02-21T01:28:05.448Z,12.60
2023-02-21T01:29:05.439Z,13.50
2023-02-21T01:30:05.479Z,11.50
2023-02-21T01:31:05.467Z,12.50
2023-02-21T01:32:05.466Z,12.60
2023-02-21T01:33:05.402Z,12.70
2023-02-21T01:34:05.393Z,13.30
2023-02-21T01:35:05.403Z,13.10
2023-02-21T01:36:05.372Z,13.90
2023-02-21T01:37:05.376Z,12.70
2023-02-21T01:38:05.346Z,12.70
2023-02-21T01:39:05.334Z,12.10
2023-02-21T01:40:05.314Z,13.20
2023-02-21T01:41:05.303Z,12.60
2023-02-21T01:42:05.333Z,13.20
2023-02-21T01:43:05.283Z,12.30
2023-02-21T01:44:05.284Z,12.70
2023-02-21T01:45:05.296Z,13.20
2023-02-21T01:46:05.289Z,12.20
2023-02-21T01:47:05.244Z,13.20
2023-02-21T01:48:05.264Z,12.80
2023-02-21T01:49:05.222Z,12.80
2023-02-21T01:50:05.214Z,12.70
2023-02-21T01:51:05.199Z,12.40
2023-02-21T01:52:05.193Z,13.10
2023-02-21T01:53:05.202Z,12.20
2023-02-21T01:54:05.164Z,12.70
2023-02-21T01:55:05.161Z,13.60
2023-02-21T01:56:05.152Z,14.00
2023-02-21T01:57:05.140Z,14.20
2023-02-21T01:58:05.159Z,13.40
2023-02-21T01:59:05.142Z,12.10
2023-02-21T02:00:05.116Z,12.90
2023-02-21T02:01:05.096Z,12.30
2023-02-21T02:02:05.092Z,13.50
2023-02-21T02:03:05.081Z,11.90
2023-02-21T02:04:06.828Z,13.60
2023-02-21T02:05:05.063Z,12.90
2023-02-21T02:06:05.048Z,13.10
2023-02-21T02:07:05.037Z,14.30
2023-02-21T02:08:05.033Z,12.90
2023-02-21T02:09:05.043Z,12.20
2023-02-21T02:10:05.026Z,13.50
2023-02-21T02:11:04.990Z,13.30
2023-02-21T02:12:04.997Z,12.70
2023-02-21T02:13:04.982Z,12.90
2023-02-21T02:14:04.955Z,13.10
2023-02-21T02:15:04.965Z,11.90
2023-02-21T02:16:04.957Z,12.70
2023-02-21T02:17:04.928Z,13.30
2023-02-21T02:18:05.866Z,14.40
2023-02-21T02:19:04.903Z,13.30
2023-02-21T02:20:04.926Z,13.50
2023-02-21T02:21:04.892Z,10.90
2023-02-21T02:22:04.873Z,12.80
2023-02-21T02:23:04.855Z,14.00
2023-02-21T02:24:04.856Z,13.30
2023-02-21T02:25:04.859Z,13.40
2023-02-21T02:26:04.846Z,14.00
2023-02-21T02:27:04.817Z,12.90
2023-02-21T02:28:04.826Z,13.70
2023-02-21T02:29:04.817Z,12.40
2023-02-21T02:30:04.842Z,13.80
2023-02-21T02:31:04.915Z,14.10
2023-02-21T02:32:04.908Z,13.90
2023-02-21T02:33:04.790Z,13.30
2023-02-21T02:34:04.753Z,12.50
2023-02-21T02:35:04.736Z,14.00
2023-02-21T02:36:04.735Z,13.40
2023-02-21T02:37:04.746Z,13.50
2023-02-21T02:38:04.715Z,12.90
2023-02-21T02:39:04.689Z,13.90
2023-02-21T02:40:04.683Z,12.30
2023-02-21T02:41:04.668Z,13.20
2023-02-21T02:42:04.665Z,13.20
2023-02-21T02:43:04.690Z,13.50
2023-02-21T02:44:04.656Z,12.80
2023-02-21T02:45:04.641Z,13.40
2023-02-21T02:46:04.713Z,13.50
2023-02-21T02:47:04.604Z,13.30
2023-02-21T02:48:04.592Z,13.50
2023-02-21T02:49:04.604Z,13.30
2023-02-21T02:50:04.588Z,12.80
2023-02-21T02:51:04.555Z,13.60
2023-02-21T02:52:04.556Z,12.80
2023-02-21T02:53:04.549Z,13.20
2023-02-21T02:54:04.557Z,13.40
2023-02-21T02:55:04.517Z,12.40
2023-02-21T02:56:04.518Z,14.30
2023-02-21T02:57:04.496Z,13.90
2023-02-21T02:58:04.487Z,15.00
2023-02-21T02:59:04.511Z,14.10
2023-02-21T03:00:04.461Z,13.30
2023-02-21T03:01:04.456Z,14.10
2023-02-21T03:02:04.436Z,11.20
2023-02-21T03:03:04.426Z,13.10
2023-02-21T03:04:04.432Z,14.10
2023-02-21T03:05:04.428Z,13.10
2023-02-21T03:06:04.407Z,13.70
2023-02-21T03:07:04.407Z,12.00
2023-02-21T03:08:04.383Z,13.90
2023-02-21T03:09:04.387Z,13.20
2023-02-21T03:10:04.393Z,13.30
2023-02-21T03:11:04.351Z,15.10
2023-02-21T03:12:04.332Z,14.20
2023-02-21T03:13:04.324Z,12.40
2023-02-21T03:14:04.310Z,14.20
2023-02-21T03:15:04.303Z,13.40
2023-02-21T03:16:04.368Z,13.60
2023-02-21T03:17:04.285Z,15.30
2023-02-21T03:18:04.273Z,13.40
2023-02-21T03:19:04.272Z,14.10
2023-02-21T03:20:04.256Z,13.20
2023-02-21T03:21:04.247Z,14.00
2023-02-21T03:22:04.262Z,12.90
2023-02-21T03:23:04.227Z,12.00
2023-02-21T03:24:04.227Z,13.00
2023-02-21T03:25:04.215Z,14.40
2023-02-21T03:26:04.198Z,14.10
2023-02-21T03:27:04.186Z,12.90
2023-02-21T03:28:04.214Z,14.40
2023-02-21T03:29:04.157Z,14.20
2023-02-21T03:30:04.997Z,13.70
2023-02-21T03:31:04.201Z,13.30
2023-02-21T03:32:04.178Z,13.60
2023-02-21T03:33:04.120Z,15.40
2023-02-21T03:34:04.123Z,14.80
2023-02-21T03:35:04.086Z,14.20
2023-02-21T03:36:04.125Z,14.50
2023-02-21T03:37:04.101Z,14.20
2023-02-21T03:38:04.072Z,14.70
2023-02-21T03:39:04.054Z,13.90
2023-02-21T03:40:04.040Z,15.30
2023-02-21T03:41:04.048Z,14.70
2023-02-21T03:42:04.018Z,14.00
2023-02-21T03:43:04.024Z,14.70
2023-02-21T03:44:04.000Z,14.20
2023-02-21T03:45:03.997Z,15.30
2023-02-21T03:46:03.995Z,14.00
2023-02-21T03:47:03.977Z,15.70
2023-02-21T03:48:03.958Z,14.30
2023-02-21T03:49:03.938Z,14.80
2023-02-21T03:50:03.937Z,14.30
2023-02-21T03:51:03.947Z,14.80
2023-02-21T03:52:03.908Z,14.20
2023-02-21T03:53:03.900Z,13.30
2023-02-21T03:54:03.891Z,12.30
2023-02-21T03:55:03.876Z,15.10
2023-02-21T03:56:03.870Z,14.80
2023-02-21T03:57:03.880Z,14.10
2023-02-21T03:58:03.858Z,15.20
2023-02-21T03:59:03.857Z,15.50
2023-02-21T04:00:03.834Z,13.80
2023-02-21T04:01:03.843Z,13.50
2023-02-21T04:02:03.940Z,15.20
2023-02-21T04:03:03.799Z,12.70
2023-02-21T04:04:03.811Z,15.60
2023-02-21T04:05:03.774Z,12.70
2023-02-21T04:06:03.763Z,14.00
2023-02-21T04:07:03.751Z,13.40
2023-02-21T04:08:03.749Z,14.60
2023-02-21T04:09:03.743Z,14.90
2023-02-21T04:10:03.769Z,14.10
2023-02-21T04:11:03.716Z,14.80
2023-02-21T04:12:03.733Z,14.60
2023-02-21T04:13:03.695Z,15.40
2023-02-21T04:14:03.684Z,14.90
2023-02-21T04:15:03.693Z,15.90
2023-02-21T04:16:03.693Z,15.10
2023-02-21T04:17:11.427Z,14.60
2023-02-21T04:18:03.637Z,13.80
2023-02-21T04:19:03.628Z,14.60
2023-02-21T04:20:03.621Z,13.80
2023-02-21T04:21:03.627Z,13.80
2023-02-21T04:22:03.597Z,14.30
2023-02-21T04:23:04.007Z,14.70
2023-02-21T04:24:03.598Z,13.60
2023-02-21T04:25:03.563Z,15.20
2023-02-21T04:26:03.579Z,14.60
2023-02-21T04:27:03.546Z,15.10
2023-02-21T04:28:03.538Z,15.00
2023-02-21T04:29:03.527Z,15.00
2023-02-21T04:30:03.582Z,14.80
2023-02-21T04:31:03.528Z,15.10
2023-02-21T04:32:03.602Z,15.60
2023-02-21T04:33:03.504Z,12.70
2023-02-21T04:34:11.737Z,14.50
2023-02-21T04:35:04.480Z,15.20
2023-02-21T04:36:03.448Z,14.10
2023-02-21T04:37:03.530Z,14.20
2023-02-21T04:38:03.440Z,15.10
2023-02-21T04:39:03.414Z,12.20
2023-02-21T04:40:03.408Z,13.50
2023-02-21T04:41:03.429Z,15.20
2023-02-21T04:42:03.390Z,15.60
2023-02-21T04:43:03.381Z,14.90
2023-02-21T04:44:03.363Z,14.90
2023-02-21T04:45:03.366Z,15.10
2023-02-21T04:46:03.431Z,14.90
2023-02-21T04:47:03.332Z,16.00
2023-02-21T04:48:03.351Z,14.40
2023-02-21T04:49:03.318Z,15.40
2023-02-21T04:50:03.313Z,16.60
2023-02-21T04:51:14.860Z,14.80
2023-02-21T04:52:04.299Z,16.00
2023-02-21T04:53:03.280Z,16.40
2023-02-21T04:54:03.262Z,14.50
2023-02-21T04:55:03.253Z,15.10
2023-02-21T04:56:03.240Z,15.70
2023-02-21T04:57:03.256Z,14.70
2023-02-21T04:58:03.216Z,16.20
2023-02-21T04:59:03.210Z,15.50
2023-02-21T05:00:03.193Z,15.40
2023-02-21T05:01:03.212Z,16.20
2023-02-21T05:02:03.193Z,17.10
2023-02-21T05:03:03.182Z,14.20
2023-02-21T05:04:03.177Z,15.40
2023-02-21T05:05:03.203Z,15.00
2023-02-21T05:06:03.134Z,15.80
2023-02-21T05:07:03.143Z,16.30
2023-02-21T05:08:03.111Z,15.70
2023-02-21T05:09:03.109Z,15.40
2023-02-21T05:10:03.092Z,16.70
2023-02-21T05:11:03.084Z,15.30
2023-02-21T05:12:03.083Z,15.70
2023-02-21T05:13:03.082Z,15.60
2023-02-21T05:14:03.042Z,15.80
2023-02-21T05:15:03.040Z,14.80
2023-02-21T05:16:03.025Z,15.30
2023-02-21T05:17:03.021Z,15.60
2023-02-21T05:18:03.032Z,14.10
2023-02-21T05:19:03.003Z,16.10
2023-02-21T05:20:02.984Z,14.80
2023-02-21T05:21:03.497Z,13.80
2023-02-21T05:22:02.997Z,14.80
2023-02-21T05:23:13.070Z,15.10
2023-02-21T05:24:03.941Z,14.80
2023-02-21T05:25:02.924Z,14.70
2023-02-21T05:26:02.913Z,14.50
2023-02-21T05:27:02.933Z,14.70
2023-02-21T05:28:02.901Z,13.60
2023-02-21T05:29:02.883Z,14.50
2023-02-21T05:30:02.877Z,13.60
2023-02-21T05:31:02.963Z,13.00
2023-02-21T05:32:02.898Z,13.10
2023-02-21T05:33:02.876Z,13.70
2023-02-21T05:34:02.860Z,14.20
2023-02-21T05:35:02.866Z,14.20
2023-02-21T05:36:02.863Z,14.70
2023-02-21T05:37:02.807Z,11.40
2023-02-21T05:38:02.800Z,13.60
2023-02-21T05:39:02.804Z,12.60
2023-02-21T05:40:02.785Z,13.90
2023-02-21T05:41:02.785Z,13.50
2023-02-21T05:42:02.746Z,11.90
2023-02-21T05:43:02.736Z,14.40
2023-02-21T05:44:02.734Z,12.90
2023-02-21T05:45:02.717Z,12.40
2023-02-21T05:46:02.713Z,13.10
2023-02-21T05:47:02.724Z,12.50
2023-02-21T05:48:02.675Z,12.30
2023-02-21T05:49:02.679Z,12.00
2023-02-21T05:50:02.658Z,13.20
2023-02-21T05:51:02.654Z,12.60
2023-02-21T05:52:02.637Z,12.50
2023-02-21T05:53:02.657Z,11.50
2023-02-21T05:54:02.615Z,11.70
2023-02-21T05:55:02.608Z,13.00
2023-02-21T05:56:02.588Z,13.00
2023-02-21T05:57:02.602Z,12.70
2023-02-21T05:58:02.604Z,12.90
2023-02-21T05:59:02.554Z,12.70
2023-02-21T06:00:02.557Z,13.10
2023-02-21T06:01:02.534Z,11.40
2023-02-21T06:02:02.583Z,12.10
2023-02-21T06:03:04.904Z,11.60
2023-02-21T06:04:02.524Z,12.80
2023-02-21T06:05:02.513Z,12.40
2023-02-21T06:06:02.482Z,12.40
2023-02-21T06:07:02.484Z,11.80
2023-02-21T06:08:02.486Z,12.00
2023-02-21T06:09:02.451Z,12.60
2023-02-21T06:10:02.441Z,10.70
2023-02-21T06:11:02.430Z,12.50
2023-02-21T06:12:02.421Z,13.60
2023-02-21T06:13:02.410Z,11.90
2023-02-21T06:14:02.412Z,12.60
2023-02-21T06:15:02.400Z,12.50
2023-02-21T06:16:02.395Z,12.20
2023-02-21T06:17:02.387Z,13.70
2023-02-21T06:18:02.371Z,14.50
2023-02-21T06:19:02.343Z,13.70
2023-02-21T06:20:02.359Z,12.40
2023-02-21T06:21:02.321Z,13.00
2023-02-21T06:22:02.316Z,12.00
2023-02-21T06:23:02.299Z,12.50
2023-02-21T06:24:02.309Z,11.80
2023-02-21T06:25:02.282Z,12.80
2023-02-21T06:26:02.286Z,12.50
2023-02-21T06:27:02.261Z,13.60
2023-02-21T06:28:02.242Z,12.50
2023-02-21T06:29:02.240Z,13.60
2023-02-21T06:30:02.222Z,13.50
2023-02-21T06:31:02.261Z,12.90
2023-02-21T06:32:02.242Z,13.10
2023-02-21T06:33:02.196Z,13.00
2023-02-21T06:34:02.182Z,11.60
2023-02-21T06:35:02.175Z,12.60
2023-02-21T06:36:02.157Z,12.80
2023-02-21T06:37:02.180Z,12.90
2023-02-21T06:38:02.145Z,11.60
2023-02-21T06:39:02.137Z,12.10
2023-02-21T06:40:02.140Z,13.20
2023-02-21T06:41:03.297Z,11.90
2023-02-21T06:42:02.098Z,12.20
2023-02-21T06:43:02.090Z,11.90
2023-02-21T06:44:02.096Z,11.90
2023-02-21T06:45:02.071Z,11.60
2023-02-21T06:46:02.075Z,11.60
2023-02-21T06:47:02.083Z,12.50
2023-02-21T06:48:02.033Z,10.80
2023-02-21T06:49:02.022Z,12.00
2023-02-21T06:50:02.034Z,10.50
2023-02-21T06:51:02.003Z,10.40
2023-02-21T06:52:01.998Z,11.30
2023-02-21T06:53:02.027Z,10.70
2023-02-21T06:54:01.980Z,11.70
2023-02-21T06:55:01.963Z,11.20
2023-02-21T06:56:01.941Z,11.50
2023-02-21T06:57:01.956Z,10.50
2023-02-21T06:58:01.931Z,10.50
2023-02-21T06:59:01.948Z,11.30
2023-02-21T07:00:01.910Z,11.10
2023-02-21T07:01:01.902Z,11.00
2023-02-21T07:02:01.910Z,11.30
2023-02-21T07:03:01.880Z,10.70
2023-02-21T07:04:01.873Z,11.40
2023-02-21T07:05:01.874Z,11.40
2023-02-21T07:06:01.851Z,10.70
2023-02-21T07:07:01.833Z,11.80
2023-02-21T07:08:01.845Z,10.60
2023-02-21T07:09:01.819Z,10.10
2023-02-21T07:10:01.826Z,10.90
2023-02-21T07:11:01.816Z,10.80
2023-02-21T07:12:01.777Z,10.00
2023-02-21T07:13:01.770Z,9.30
2023-02-21T07:14:01.787Z,10.70
2023-02-21T07:15:01.779Z,11.60
2023-02-21T07:16:01.810Z,9.80
2023-02-21T07:17:01.747Z,10.80
2023-02-21T07:18:01.711Z,11.60
2023-02-21T07:19:01.700Z,11.00
2023-02-21T07:20:01.692Z,10.90
2023-02-21T07:21:01.678Z,10.60
2023-02-21T07:22:01.694Z,10.80
2023-02-21T07:23:01.668Z,10.20
2023-02-21T07:24:01.650Z,11.30
2023-02-21T07:25:01.641Z,10.90
2023-02-21T07:26:01.621Z,10.80
2023-02-21T07:27:01.620Z,11.50
2023-02-21T07:28:01.625Z,11.20
2023-02-21T07:29:01.616Z,9.70
2023-02-21T07:30:01.596Z,10.60
2023-02-21T07:31:01.590Z,9.50
2023-02-21T07:32:01.579Z,11.50
2023-02-21T07:33:01.559Z,10.80
2023-02-21T07:34:01.563Z,11.10
2023-02-21T07:35:01.530Z,10.70
2023-02-21T07:36:01.531Z,10.20
2023-02-21T07:37:01.517Z,10.60
2023-02-21T07:38:01.492Z,9.70
2023-02-21T07:39:01.514Z,10.70
2023-02-21T07:40:01.472Z,9.40
2023-02-21T07:41:01.472Z,10.20
2023-02-21T07:42:01.453Z,10.50
2023-02-21T07:43:01.442Z,11.50
2023-02-21T07:44:01.431Z,10.20
2023-02-21T07:45:01.451Z,10.40
2023-02-21T07:46:01.491Z,10.60
2023-02-21T07:47:01.404Z,11.70
2023-02-21T07:48:01.392Z,11.10
2023-02-21T07:49:01.374Z,11.10
2023-02-21T07:50:01.365Z,10.90
2023-02-21T07:51:01.385Z,10.10
2023-02-21T07:52:01.349Z,11.20
2023-02-21T07:53:01.332Z,12.30
2023-02-21T07:54:01.323Z,10.60
2023-02-21T07:55:01.322Z,10.10
2023-02-21T07:56:01.313Z,11.90
2023-02-21T07:57:01.320Z,12.20
2023-02-21T07:58:01.285Z,13.40
2023-02-21T07:59:01.276Z,11.30
2023-02-21T08:00:01.285Z,10.90
2023-02-21T08:01:01.251Z,12.90
2023-02-21T08:02:01.337Z,12.20
2023-02-21T08:03:01.235Z,11.20
2023-02-21T08:04:02.095Z,12.80
2023-02-21T08:05:01.310Z,12.40
2023-02-21T08:06:01.197Z,13.30
2023-02-21T08:07:01.203Z,13.00
2023-02-21T08:08:01.208Z,12.00
2023-02-21T08:09:01.166Z,13.10
2023-02-21T08:10:01.152Z,12.00
2023-02-21T08:11:01.147Z,13.20
2023-02-21T08:12:01.150Z,12.60
2023-02-21T08:13:01.131Z,11.50
2023-02-21T08:14:01.134Z,12.30
2023-02-21T08:15:01.124Z,12.10
2023-02-21T08:16:01.103Z,13.40
2023-02-21T08:17:01.086Z,13.00
2023-02-21T08:18:01.068Z,13.40
2023-02-21T08:19:01.060Z,11.50
2023-02-21T08:20:01.132Z,13.40
2023-02-21T08:21:01.038Z,13.30
2023-02-21T08:22:01.024Z,12.60
2023-02-21T08:23:01.021Z,13.00
2023-02-21T08:24:01.001Z,13.10
2023-02-21T08:25:01.017Z,13.10
2023-02-21T08:26:00.978Z,12.70
2023-02-21T08:27:00.977Z,12.30
2023-02-21T08:28:00.960Z,12.20
2023-02-21T08:29:00.950Z,13.40
2023-02-21T08:30:00.967Z,13.50
2023-02-21T08:31:00.993Z,12.90
2023-02-21T08:32:00.936Z,14.30
2023-02-21T08:33:00.907Z,13.10
2023-02-21T08:34:00.891Z,12.60
2023-02-21T08:35:00.882Z,13.70
2023-02-21T08:36:00.871Z,14.60
2023-02-21T08:37:00.898Z,12.50
2023-02-21T08:38:00.850Z,14.60
2023-02-21T08:39:00.848Z,11.50
2023-02-21T08:40:00.828Z,13.20
2023-02-21T08:41:00.850Z,12.90
2023-02-21T08:42:00.811Z,12.90
2023-02-21T08:43:00.803Z,12.80
2023-02-21T08:44:00.784Z,13.60
2023-02-21T08:45:00.800Z,12.60
2023-02-21T08:46:00.761Z,13.30
2023-02-21T08:47:00.805Z,12.90
2023-02-21T08:48:00.749Z,12.40
2023-02-21T08:49:00.744Z,11.80
2023-02-21T08:50:00.725Z,12.50
2023-02-21T08:51:00.716Z,12.60
2023-02-21T08:52:00.729Z,13.00
2023-02-21T08:53:00.708Z,12.80
2023-02-21T08:54:00.682Z,13.30
2023-02-21T08:55:00.666Z,12.80
2023-02-21T08:56:00.662Z,13.50
2023-02-21T08:57:00.647Z,12.70
2023-02-21T08:58:00.668Z,13.20
2023-02-21T08:59:00.673Z,13.20
2023-02-21T09:00:00.616Z,12.60
2023-02-21T09:01:00.682Z,13.00
2023-02-21T09:02:00.623Z,12.70
2023-02-21T09:03:00.613Z,13.50
2023-02-21T09:04:00.576Z,12.60
2023-02-21T09:05:00.571Z,13.50
2023-02-21T09:06:00.556Z,12.20
2023-02-21T09:07:00.550Z,13.00
2023-02-21T09:08:00.536Z,12.20
2023-02-21T09:09:00.547Z,12.80
2023-02-21T09:10:01.323Z,13.00
2023-02-21T09:11:00.623Z,12.10
2023-02-21T09:12:00.495Z,12.60
2023-02-21T09:13:00.476Z,12.40
2023-02-21T09:14:00.497Z,12.20
2023-02-21T09:15:00.462Z,12.80
2023-02-21T09:16:00.556Z,12.50
2023-02-21T09:17:00.437Z,12.20
2023-02-21T09:18:00.428Z,12.40
2023-02-21T09:19:00.442Z,14.40
2023-02-21T09:20:00.406Z,12.70
2023-02-21T09:21:00.389Z,10.90
2023-02-21T09:22:01.762Z,12.20
2023-02-21T09:23:00.370Z,12.80
2023-02-21T09:24:00.388Z,13.00
2023-02-21T09:25:00.349Z,12.30
2023-02-21T09:26:00.340Z,12.60
2023-02-21T09:27:00.330Z,11.50
2023-02-21T09:28:00.429Z,11.20
2023-02-21T09:29:00.313Z,12.70
2023-02-21T09:30:00.318Z,12.10
2023-02-21T09:31:00.281Z,11.30
2023-02-21T09:32:00.279Z,12.00
2023-02-21T09:33:00.267Z,12.20
2023-02-21T09:34:00.259Z,10.60
2023-02-21T09:35:00.264Z,13.30
2023-02-21T09:36:00.241Z,11.80
2023-02-21T09:37:00.222Z,11.00
2023-02-21T09:38:00.214Z,11.00
2023-02-21T09:39:00.219Z,11.70
2023-02-21T09:40:00.249Z,12.30
2023-02-21T09:41:00.177Z,12.50
2023-02-21T09:42:00.216Z,12.30
2023-02-21T09:43:00.160Z,11.50
2023-02-21T09:44:00.173Z,11.40
2023-02-21T09:45:00.140Z,12.30
2023-02-21T09:46:00.185Z,12.10
2023-02-21T09:47:00.123Z,11.40
2023-02-21T09:48:00.122Z,10.90
2023-02-21T09:49:00.119Z,11.00
2023-02-21T09:50:00.117Z,11.80
2023-02-21T09:51:00.113Z,11.40
2023-02-21T09:52:00.084Z,12.30
2023-02-21T09:53:00.058Z,11.00
2023-02-21T09:54:00.051Z,11.10
2023-02-21T09:55:00.051Z,12.50
2023-02-21T09:56:00.028Z,12.00
2023-02-21T09:57:00.051Z,11.60
2023-02-21T09:58:00.010Z,11.40
2023-02-21T09:58:59.994Z,11.80
2023-02-21T09:59:59.992Z,11.30
2023-02-21T10:01:00.000Z,11.40
2023-02-21T10:01:59.979Z,11.90
2023-02-21T10:02:59.940Z,11.00
2023-02-21T10:03:59.949Z,11.40
2023-02-21T10:04:59.991Z,11.10
2023-02-21T10:05:59.920Z,11.20
2023-02-21T10:06:59.914Z,9.90
2023-02-21T10:07:59.920Z,10.70
2023-02-21T10:08:59.886Z,10.40
2023-02-21T10:09:59.898Z,10.40
2023-02-21T10:10:59.858Z,9.90
2023-02-21T10:11:59.847Z,9.90
2023-02-21T10:12:59.839Z,11.00
2023-02-21T10:13:59.831Z,9.40
2023-02-21T10:14:59.811Z,11.60
2023-02-21T10:15:59.846Z,10.30
2023-02-21T10:17:08.113Z,11.10
2023-02-21T10:17:59.794Z,9.90
2023-02-21T10:18:59.779Z,9.10
2023-02-21T10:19:59.780Z,8.70
2023-02-21T10:20:59.758Z,10.60
2023-02-21T10:21:59.772Z,9.00
2023-02-21T10:22:59.736Z,9.00
2023-02-21T10:23:59.726Z,9.40
2023-02-21T10:24:59.707Z,11.40
2023-02-21T10:25:59.749Z,10.50
2023-02-21T10:26:59.719Z,10.00
2023-02-21T10:27:59.679Z,9.50
2023-02-21T10:28:59.708Z,9.90
2023-02-21T10:29:59.660Z,10.10
2023-02-21T10:30:59.807Z,9.90
2023-02-21T10:31:59.670Z,10.40
2023-02-21T10:32:59.691Z,10.10
2023-02-21T10:33:59.621Z,10.00
2023-02-21T10:34:59.609Z,9.60
2023-02-21T10:35:59.607Z,8.40
2023-02-21T10:36:59.613Z,9.30
2023-02-21T10:37:59.609Z,9.70
2023-02-21T10:38:59.558Z,9.10
2023-02-21T10:39:59.560Z,9.10
2023-02-21T10:40:59.549Z,8.90
2023-02-21T10:41:59.535Z,9.20
2023-02-21T10:42:59.579Z,9.80
2023-02-21T10:43:59.517Z,9.40
2023-02-21T10:44:59.499Z,8.20
2023-02-21T10:45:59.545Z,8.60
2023-02-21T10:46:59.483Z,8.50
2023-02-21T10:47:59.471Z,8.20
2023-02-21T10:48:59.477Z,9.20
2023-02-21T10:49:59.452Z,8.20
2023-02-21T10:50:59.438Z,7.80
2023-02-21T10:51:59.439Z,8.70
2023-02-21T10:52:59.457Z,8.50
2023-02-21T10:53:59.430Z,8.40
2023-02-21T10:54:59.390Z,7.20
2023-02-21T10:55:59.389Z,8.20
2023-02-21T10:56:59.393Z,7.70
2023-02-21T10:57:59.376Z,7.70
2023-02-21T10:58:59.380Z,7.30
2023-02-21T10:59:59.371Z,7.70
2023-02-21T11:00:59.412Z,8.00
2023-02-21T11:01:59.321Z,7.90
2023-02-21T11:02:59.322Z,7.20
2023-02-21T11:03:59.304Z,7.20
2023-02-21T11:04:59.302Z,8.50
2023-02-21T11:05:59.303Z,7.00
2023-02-21T11:06:59.296Z,7.10
2023-02-21T11:07:59.262Z,8.20
2023-02-21T11:08:59.243Z,7.40
2023-02-21T11:09:59.298Z,6.90
2023-02-21T11:10:59.222Z,6.60
2023-02-21T11:11:59.243Z,6.60
2023-02-21T11:12:59.212Z,7.00
2023-02-21T11:13:59.221Z,6.90
2023-02-21T11:14:59.216Z,6.80
2023-02-21T11:15:59.187Z,7.10
2023-02-21T11:16:59.183Z,7.10
2023-02-21T11:17:59.155Z,6.50
2023-02-21T11:18:59.134Z,6.90
2023-02-21T11:19:59.138Z,7.60
2023-02-21T11:20:59.120Z,7.20
2023-02-21T11:21:59.123Z,6.60
2023-02-21T11:22:59.094Z,8.50
2023-02-21T11:23:59.137Z,9.00
2023-02-21T11:24:59.087Z,8.60
2023-02-21T11:25:59.079Z,6.80
2023-02-21T11:26:59.076Z,6.60
2023-02-21T11:27:59.042Z,9.60
2023-02-21T11:28:59.046Z,7.50
2023-02-21T11:29:59.025Z,6.90
2023-02-21T11:30:59.048Z,6.50
2023-02-21T11:31:59.030Z,6.80
2023-02-21T11:32:59.016Z,6.80
2023-02-21T11:33:58.998Z,6.60
2023-02-21T11:34:58.994Z,6.00
2023-02-21T11:35:58.986Z,6.90
2023-02-21T11:36:58.950Z,6.50
2023-02-21T11:37:58.972Z,6.40
2023-02-21T11:38:58.934Z,6.60
2023-02-21T11:39:58.921Z,6.60
2023-02-21T11:40:58.919Z,6.40
2023-02-21T11:41:58.902Z,6.60
2023-02-21T11:42:58.909Z,6.80
2023-02-21T11:43:58.884Z,6.80
2023-02-21T11:44:58.863Z,6.50
2023-02-21T11:45:58.910Z,6.10
2023-02-21T11:46:58.843Z,7.00
2023-02-21T11:47:58.861Z,6.70
2023-02-21T11:48:58.824Z,6.10
2023-02-21T11:49:58.822Z,6.90
2023-02-21T11:50:58.801Z,6.90
2023-02-21T11:51:58.796Z,6.70
2023-02-21T11:52:58.773Z,5.90
2023-02-21T11:53:58.782Z,7.10
2023-02-21T11:54:58.769Z,6.50
2023-02-21T11:55:58.761Z,6.70
2023-02-21T11:56:58.741Z,6.50
2023-02-21T11:57:58.720Z,6.00
2023-02-21T11:58:58.720Z,5.70
2023-02-21T11:59:58.730Z,6.30
2023-02-21T12:00:58.681Z,5.80
2023-02-21T12:01:58.676Z,6.60
2023-02-21T12:02:58.666Z,6.50
2023-02-21T12:03:58.658Z,5.40
2023-02-21T12:04:58.660Z,6.30
2023-02-21T12:05:58.683Z,6.50
2023-02-21T12:06:58.611Z,5.40
2023-02-21T12:07:58.608Z,5.80
2023-02-21T12:08:58.598Z,6.40
2023-02-21T12:09:58.600Z,6.60
2023-02-21T12:10:58.608Z,6.10
2023-02-21T12:12:00.599Z,6.70
2023-02-21T12:12:58.562Z,5.80
2023-02-21T12:13:58.558Z,6.40
2023-02-21T12:14:58.521Z,5.70
2023-02-21T12:15:58.602Z,5.50
2023-02-21T12:16:58.526Z,6.30
2023-02-21T12:17:58.497Z,5.60
2023-02-21T12:18:58.519Z,4.90
2023-02-21T12:19:58.501Z,5.40
2023-02-21T12:20:58.468Z,4.90
2023-02-21T12:21:58.458Z,4.90
2023-02-21T12:22:58.450Z,6.10
2023-02-21T12:23:58.430Z,5.50
2023-02-21T12:24:58.480Z,5.30
2023-02-21T12:25:58.410Z,4.90
2023-02-21T12:26:58.448Z,5.40
2023-02-21T12:27:58.394Z,5.80
2023-02-21T12:28:58.383Z,6.00
2023-02-21T12:29:58.372Z,6.70
2023-02-21T12:30:58.406Z,9.50
2023-02-21T12:31:58.442Z,7.40
2023-02-21T12:32:58.367Z,5.80
2023-02-21T12:33:58.332Z,6.30
2023-02-21T12:34:58.333Z,5.50
2023-02-21T12:35:58.358Z,5.80
2023-02-21T12:36:58.324Z,5.10
2023-02-21T12:37:58.313Z,5.50
2023-02-21T12:38:58.275Z,5.60
2023-02-21T12:39:58.275Z,6.00
2023-02-21T12:40:58.284Z,5.70
2023-02-21T12:41:58.275Z,5.40
2023-02-21T12:42:58.235Z,6.60
2023-02-21T12:43:58.227Z,6.00
2023-02-21T12:44:58.221Z,6.10
2023-02-21T12:45:58.220Z,6.10
2023-02-21T12:46:58.218Z,5.50
2023-02-21T12:47:58.200Z,5.40
2023-02-21T12:48:58.179Z,5.00
2023-02-21T12:49:58.179Z,5.10
2023-02-21T12:50:58.157Z,4.90
2023-02-21T12:51:58.245Z,5.30
2023-02-21T12:52:58.159Z,4.50
2023-02-21T12:53:58.128Z,4.50
2023-02-21T12:54:58.110Z,4.60
2023-02-21T12:55:58.115Z,4.80
2023-02-21T12:56:58.091Z,4.80